createdAt,value
2023-05-05T00:00:53.374Z,0.00
2023-05-05T00:01:53.426Z,0.00
2023-05-05T00:02:53.430Z,0.00
2023-05-05T00:03:53.463Z,0.00
2023-05-05T00:04:53.439Z,0.00
2023-05-05T00:05:53.452Z,0.00
2023-05-05T00:06:53.468Z,15.84
2023-05-05T00:07:53.493Z,24.95
2023-05-05T00:08:53.518Z,25.43
2023-05-05T00:09:53.542Z,25.79
2023-05-05T00:10:53.627Z,25.12
2023-05-05T00:11:53.605Z,25.00
2023-05-05T00:12:53.669Z,25.09
2023-05-05T00:13:53.668Z,25.58
2023-05-05T00:14:53.706Z,24.87
2023-05-05T00:15:53.733Z,26.20
2023-05-05T00:16:53.833Z,25.00
2023-05-05T00:17:53.894Z,26.05
2023-05-05T00:18:53.885Z,25.00
2023-05-05T00:19:53.885Z,27.22
2023-05-05T00:20:53.932Z,26.25
2023-05-05T00:21:53.963Z,27.38
2023-05-05T00:22:54.008Z,26.29
2023-05-05T00:23:54.043Z,25.45
2023-05-05T00:24:54.082Z,25.00
2023-05-05T00:25:54.121Z,27.04
2023-05-05T00:26:54.218Z,25.79
2023-05-05T00:27:54.219Z,25.00
2023-05-05T00:28:54.273Z,25.07
2023-05-05T00:29:54.304Z,25.10
2023-05-05T00:30:54.390Z,25.66
2023-05-05T00:31:54.399Z,25.00
2023-05-05T00:32:54.474Z,25.00
2023-05-05T00:33:54.480Z,25.30
2023-05-05T00:34:54.525Z,27.68
2023-05-05T00:35:54.595Z,25.66
2023-05-05T00:36:54.630Z,25.16
2023-05-05T00:37:54.672Z,27.21
2023-05-05T00:38:54.712Z,25.70
2023-05-05T00:39:54.758Z,25.88
2023-05-05T00:40:54.803Z,25.00
2023-05-05T00:41:54.847Z,27.29
2023-05-05T00:42:54.925Z,25.00
2023-05-05T00:43:54.927Z,26.82
2023-05-05T00:44:54.975Z,25.46
2023-05-05T00:45:55.017Z,25.95
2023-05-05T00:46:55.089Z,25.29
2023-05-05T00:47:55.180Z,26.14
2023-05-05T00:48:55.211Z,26.51
2023-05-05T00:49:55.193Z,26.65
2023-05-05T00:50:55.239Z,25.47
2023-05-05T00:51:55.277Z,27.66
2023-05-05T00:52:55.344Z,28.21
2023-05-05T00:53:55.381Z,26.07
2023-05-05T00:54:55.432Z,25.71
2023-05-05T00:55:55.471Z,26.38
2023-05-05T00:56:55.540Z,25.75
2023-05-05T00:57:55.551Z,26.74
2023-05-05T00:58:55.605Z,26.98
2023-05-05T00:59:55.623Z,25.85
2023-05-05T01:00:55.677Z,25.74
2023-05-05T01:01:55.756Z,25.62
2023-05-05T01:02:55.975Z,25.26
2023-05-05T01:03:55.838Z,25.12
2023-05-05T01:04:55.879Z,26.63
2023-05-05T01:05:55.924Z,26.95
2023-05-05T01:06:55.965Z,26.71
2023-05-05T01:07:56.008Z,26.48
2023-05-05T01:08:56.050Z,25.10
2023-05-05T01:10:10.975Z,25.28
2023-05-05T01:10:56.106Z,25.62
2023-05-05T01:11:56.078Z,26.55
2023-05-05T01:12:56.142Z,25.80
2023-05-05T01:13:56.025Z,26.23
2023-05-05T01:14:56.029Z,25.38
2023-05-05T01:15:55.976Z,25.30
2023-05-05T01:16:55.944Z,26.17
2023-05-05T01:17:55.994Z,25.74
2023-05-05T01:18:55.905Z,26.24
2023-05-05T01:19:55.882Z,25.49
2023-05-05T01:20:55.859Z,25.00
2023-05-05T01:21:55.833Z,26.58
2023-05-05T01:22:55.811Z,25.78
2023-05-05T01:23:55.795Z,27.03
2023-05-05T01:24:55.769Z,27.37
2023-05-05T01:25:55.751Z,25.93
2023-05-05T01:26:55.720Z,25.00
2023-05-05T01:27:55.713Z,25.00
2023-05-05T01:28:55.672Z,28.73
2023-05-05T01:29:55.655Z,29.19
2023-05-05T01:30:55.682Z,27.42
2023-05-05T01:31:55.660Z,25.67
2023-05-05T01:32:55.658Z,25.66
2023-05-05T01:33:55.580Z,26.20
2023-05-05T01:34:55.605Z,26.70
2023-05-05T01:35:55.637Z,26.62
2023-05-05T01:36:55.671Z,25.08
2023-05-05T01:37:55.727Z,28.28
2023-05-05T01:38:55.799Z,25.00
2023-05-05T01:39:55.817Z,25.93
2023-05-05T01:40:55.870Z,27.45
2023-05-05T01:41:55.922Z,26.03
2023-05-05T01:42:55.962Z,26.87
2023-05-05T01:43:56.031Z,25.74
2023-05-05T01:44:56.073Z,26.13
2023-05-05T01:45:56.123Z,26.80
2023-05-05T01:46:56.159Z,25.21
2023-05-05T01:47:56.242Z,25.60
2023-05-05T01:48:56.240Z,27.87
2023-05-05T01:49:56.280Z,29.65
2023-05-05T01:50:56.331Z,26.82
2023-05-05T01:51:56.378Z,28.23
2023-05-05T01:52:56.417Z,25.91
2023-05-05T01:53:56.471Z,25.34
2023-05-05T01:54:56.515Z,27.55
2023-05-05T01:55:56.562Z,25.23
2023-05-05T01:56:56.607Z,26.70
2023-05-05T01:57:56.655Z,26.77
2023-05-05T01:58:56.694Z,26.68
2023-05-05T01:59:56.754Z,28.12
2023-05-05T02:00:56.897Z,25.20
2023-05-05T02:01:56.840Z,25.04
2023-05-05T02:02:57.040Z,25.44
2023-05-05T02:03:56.947Z,27.30
2023-05-05T02:04:57.036Z,27.85
2023-05-05T02:05:57.045Z,26.27
2023-05-05T02:06:57.084Z,27.93
2023-05-05T02:07:57.133Z,26.37
2023-05-05T02:08:57.192Z,26.94
2023-05-05T02:09:57.245Z,25.40
2023-05-05T02:10:57.298Z,26.83
2023-05-05T02:11:57.354Z,27.59
2023-05-05T02:12:57.470Z,25.99
2023-05-05T02:13:57.499Z,26.29
2023-05-05T02:14:57.477Z,26.26
2023-05-05T02:15:57.541Z,27.45
2023-05-05T02:16:57.598Z,26.49
2023-05-05T02:17:57.644Z,26.88
2023-05-05T02:18:57.703Z,27.13
2023-05-05T02:19:57.729Z,27.00
2023-05-05T02:20:57.778Z,26.85
2023-05-05T02:21:57.833Z,25.97
2023-05-05T02:22:57.878Z,27.36
2023-05-05T02:23:57.933Z,28.22
2023-05-05T02:24:57.985Z,26.81
2023-05-05T02:25:58.043Z,26.64
2023-05-05T02:26:58.101Z,27.03
2023-05-05T02:27:58.149Z,25.61
2023-05-05T02:28:58.199Z,26.88
2023-05-05T02:29:58.236Z,26.90
2023-05-05T02:30:58.363Z,26.39
2023-05-05T02:31:58.328Z,25.33
2023-05-05T02:32:58.394Z,25.00
2023-05-05T02:33:58.429Z,29.04
2023-05-05T02:34:58.498Z,28.01
2023-05-05T02:35:58.528Z,28.70
2023-05-05T02:36:58.601Z,28.02
2023-05-05T02:37:58.632Z,27.27
2023-05-05T02:38:58.680Z,25.00
2023-05-05T02:39:58.850Z,25.19
2023-05-05T02:40:58.796Z,27.57
2023-05-05T02:41:58.822Z,26.75
2023-05-05T02:42:58.882Z,26.26
2023-05-05T02:43:58.931Z,26.14
2023-05-05T02:44:58.972Z,25.59
2023-05-05T02:45:59.038Z,27.59
2023-05-05T02:46:59.112Z,26.48
2023-05-05T02:47:59.157Z,25.00
2023-05-05T02:48:59.161Z,28.31
2023-05-05T02:49:59.207Z,25.98
2023-05-05T02:50:59.302Z,25.84
2023-05-05T02:51:59.317Z,25.75
2023-05-05T02:52:59.372Z,25.07
2023-05-05T02:53:59.410Z,26.64
2023-05-05T02:54:59.459Z,28.35
2023-05-05T02:55:59.528Z,26.02
2023-05-05T02:56:59.571Z,27.06
2023-05-05T02:57:59.612Z,25.88
2023-05-05T02:58:59.664Z,27.84
2023-05-05T02:59:59.708Z,25.00
2023-05-05T03:00:59.762Z,26.34
2023-05-05T03:01:59.833Z,25.36
2023-05-05T03:02:59.891Z,25.08
2023-05-05T03:03:59.895Z,26.90
2023-05-05T03:04:59.935Z,26.91
2023-05-05T03:05:59.999Z,26.43
2023-05-05T03:07:00.053Z,26.78
2023-05-05T03:08:00.089Z,26.08
2023-05-05T03:09:00.154Z,25.00
2023-05-05T03:10:00.247Z,28.19
2023-05-05T03:11:00.256Z,26.27
2023-05-05T03:12:00.330Z,26.44
2023-05-05T03:13:00.359Z,25.31
2023-05-05T03:14:00.399Z,25.57
2023-05-05T03:15:00.457Z,26.12
2023-05-05T03:16:00.534Z,26.38
2023-05-05T03:17:00.537Z,29.15
2023-05-05T03:18:00.675Z,26.79
2023-05-05T03:19:00.628Z,26.86
2023-05-05T03:20:04.481Z,25.92
2023-05-05T03:21:00.656Z,26.16
2023-05-05T03:22:00.658Z,26.26
2023-05-05T03:23:00.654Z,26.00
2023-05-05T03:24:00.625Z,24.97
2023-05-05T03:25:00.613Z,23.92
2023-05-05T03:26:00.590Z,26.29
2023-05-05T03:27:00.593Z,26.63
2023-05-05T03:28:00.577Z,25.84
2023-05-05T03:29:00.578Z,25.28
2023-05-05T03:30:00.564Z,25.61
2023-05-05T03:31:00.542Z,25.00
2023-05-05T03:32:00.573Z,26.45
2023-05-05T03:33:00.552Z,25.95
2023-05-05T03:34:00.579Z,26.76
2023-05-05T03:35:00.623Z,25.10
2023-05-05T03:36:00.659Z,26.02
2023-05-05T03:37:00.723Z,25.22
2023-05-05T03:38:00.770Z,27.55
2023-05-05T03:39:00.844Z,26.09
2023-05-05T03:40:00.888Z,25.47
2023-05-05T03:41:00.928Z,26.13
2023-05-05T03:42:00.994Z,27.64
2023-05-05T03:43:01.027Z,25.00
2023-05-05T03:44:01.071Z,26.24
2023-05-05T03:45:01.119Z,26.78
2023-05-05T03:46:01.206Z,25.76
2023-05-05T03:47:01.190Z,25.82
2023-05-05T03:48:01.283Z,26.06
2023-05-05T03:49:01.276Z,25.89
2023-05-05T03:50:01.326Z,25.55
2023-05-05T03:51:01.383Z,25.38
2023-05-05T03:52:01.450Z,26.86
2023-05-05T03:53:01.510Z,27.74
2023-05-05T03:54:01.598Z,25.00
2023-05-05T03:55:01.661Z,25.35
2023-05-05T03:56:01.651Z,25.09
2023-05-05T03:57:01.703Z,26.71
2023-05-05T03:58:01.746Z,29.25
2023-05-05T03:59:01.823Z,27.93
2023-05-05T04:00:01.848Z,25.10
2023-05-05T04:01:01.918Z,25.61
2023-05-05T04:02:01.970Z,25.00
2023-05-05T04:03:02.052Z,26.63
2023-05-05T04:04:02.061Z,30.62
2023-05-05T04:05:02.060Z,28.39
2023-05-05T04:06:02.107Z,26.67
2023-05-05T04:07:02.158Z,25.57
2023-05-05T04:08:02.221Z,26.02
2023-05-05T04:09:02.272Z,26.66
2023-05-05T04:10:02.332Z,25.25
2023-05-05T04:11:02.431Z,25.00
2023-05-05T04:12:02.430Z,25.60
2023-05-05T04:13:02.495Z,25.36
2023-05-05T04:14:02.533Z,27.21
2023-05-05T04:15:02.587Z,26.02
2023-05-05T04:16:02.679Z,25.00
2023-05-05T04:17:02.703Z,26.09
2023-05-05T04:18:02.762Z,26.04
2023-05-05T04:19:02.791Z,26.60
2023-05-05T04:20:02.836Z,26.98
2023-05-05T04:21:02.893Z,25.08
2023-05-05T04:22:02.934Z,25.35
2023-05-05T04:23:02.980Z,25.46
2023-05-05T04:24:03.044Z,25.26
2023-05-05T04:25:03.087Z,26.67
2023-05-05T04:26:03.175Z,26.73
2023-05-05T04:27:03.228Z,26.52
2023-05-05T04:28:03.254Z,25.76
2023-05-05T04:29:03.301Z,25.53
2023-05-05T04:30:03.348Z,26.71
2023-05-05T04:31:03.537Z,27.08
2023-05-05T04:32:03.468Z,25.00
2023-05-05T04:33:03.598Z,27.06
2023-05-05T04:34:03.541Z,25.92
2023-05-05T04:35:03.576Z,25.54
2023-05-05T04:36:03.628Z,26.06
2023-05-05T04:37:03.768Z,26.14
2023-05-05T04:38:03.711Z,26.80
2023-05-05T04:39:03.809Z,26.04
2023-05-05T04:40:03.790Z,26.01
2023-05-05T04:41:03.837Z,28.35
2023-05-05T04:42:03.906Z,25.54
2023-05-05T04:43:04.068Z,25.73
2023-05-05T04:44:03.997Z,26.31
2023-05-05T04:45:04.058Z,25.84
2023-05-05T04:46:04.168Z,27.50
2023-05-05T04:47:04.178Z,28.21
2023-05-05T04:48:04.254Z,26.77
2023-05-05T04:49:04.237Z,25.93
2023-05-05T04:50:04.302Z,29.12
2023-05-05T04:51:04.354Z,25.61
2023-05-05T04:52:04.386Z,26.64
2023-05-05T04:53:04.422Z,27.71
2023-05-05T04:54:04.483Z,25.88
2023-05-05T04:55:04.523Z,27.98
2023-05-05T04:56:04.560Z,25.00
2023-05-05T04:57:04.583Z,25.01
2023-05-05T04:58:04.626Z,26.15
2023-05-05T04:59:04.675Z,26.73
2023-05-05T05:00:04.703Z,25.83
2023-05-05T05:01:04.731Z,25.90
2023-05-05T05:02:04.845Z,25.21
2023-05-05T05:03:04.968Z,25.48
2023-05-05T05:04:05.058Z,25.67
2023-05-05T05:05:04.914Z,26.24
2023-05-05T05:06:04.986Z,26.77
2023-05-05T05:07:05.007Z,25.69
2023-05-05T05:08:05.060Z,25.56
2023-05-05T05:09:05.094Z,25.75
2023-05-05T05:10:05.231Z,25.79
2023-05-05T05:11:05.192Z,25.62
2023-05-05T05:12:05.202Z,27.04
2023-05-05T05:13:05.570Z,26.93
2023-05-05T05:14:05.293Z,26.81
2023-05-05T05:15:05.374Z,25.55
2023-05-05T05:16:05.380Z,25.62
2023-05-05T05:17:05.412Z,26.21
2023-05-05T05:18:05.589Z,25.53
2023-05-05T05:19:05.500Z,25.78
2023-05-05T05:20:05.556Z,25.50
2023-05-05T05:21:06.069Z,26.12
2023-05-05T05:22:05.612Z,29.30
2023-05-05T05:23:05.679Z,27.70
2023-05-05T05:24:05.730Z,26.75
2023-05-05T05:25:05.802Z,26.59
2023-05-05T05:26:05.882Z,26.25
2023-05-05T05:27:07.331Z,27.40
2023-05-05T05:28:10.499Z,27.59
2023-05-05T05:29:05.837Z,28.02
2023-05-05T05:30:06.027Z,29.06
2023-05-05T05:31:05.801Z,29.46
2023-05-05T05:32:05.823Z,31.17
2023-05-05T05:33:05.773Z,31.34
2023-05-05T05:34:05.702Z,30.77
2023-05-05T05:35:05.694Z,30.81
2023-05-05T05:36:05.678Z,29.72
2023-05-05T05:37:05.662Z,27.89
2023-05-05T05:38:05.664Z,30.90
2023-05-05T05:39:05.639Z,34.53
2023-05-05T05:40:05.731Z,35.79
2023-05-05T05:41:06.037Z,38.32
2023-05-05T05:42:05.597Z,42.17
2023-05-05T05:43:05.600Z,44.33
2023-05-05T05:44:05.574Z,43.93
2023-05-05T05:45:05.582Z,43.05
2023-05-05T05:46:08.302Z,44.01
2023-05-05T05:47:05.553Z,44.30
2023-05-05T05:48:05.535Z,45.08
2023-05-05T05:49:05.467Z,46.67
2023-05-05T05:50:05.588Z,49.26
2023-05-05T05:51:08.615Z,54.25
2023-05-05T05:52:06.573Z,44.75
2023-05-05T05:53:08.811Z,47.92
2023-05-05T05:54:08.578Z,45.18
2023-05-05T05:55:12.769Z,45.44
2023-05-05T05:56:12.772Z,45.69
2023-05-05T05:57:08.737Z,45.97
2023-05-05T05:58:05.313Z,46.28
2023-05-05T05:59:05.278Z,52.64
2023-05-05T06:00:05.442Z,62.82
2023-05-05T06:01:05.252Z,78.53
2023-05-05T06:02:13.003Z,98.85
2023-05-05T06:03:05.742Z,46.21
2023-05-05T06:05:05.165Z,46.64
2023-05-05T06:07:20.782Z,46.98
2023-05-05T06:08:05.109Z,47.26
2023-05-05T06:09:06.597Z,57.92
2023-05-05T06:10:25.705Z,77.91
2023-05-05T06:11:05.052Z,47.14
2023-05-05T06:12:05.045Z,58.98
2023-05-05T06:13:05.050Z,80.99
2023-05-05T06:14:05.013Z,110.98
2023-05-05T06:16:20.602Z,47.76
2023-05-05T06:17:08.268Z,48.17
2023-05-05T06:18:08.247Z,48.80
2023-05-05T06:19:08.088Z,48.64
2023-05-05T06:20:08.301Z,48.73
2023-05-05T06:21:04.841Z,48.79
2023-05-05T06:22:05.701Z,64.55
2023-05-05T06:23:04.795Z,92.68
2023-05-05T06:24:05.063Z,130.91
2023-05-05T06:25:04.750Z,186.17
2023-05-05T06:26:04.753Z,187.10
2023-05-05T06:27:05.075Z,188.34
2023-05-05T06:28:04.691Z,187.07
2023-05-05T06:29:06.078Z,188.91
2023-05-05T06:30:04.636Z,191.66
2023-05-05T06:31:04.635Z,195.20
2023-05-05T06:32:04.588Z,196.45
2023-05-05T06:33:04.598Z,196.31
2023-05-05T06:34:04.585Z,199.48
2023-05-05T06:35:04.544Z,204.62
2023-05-05T06:36:04.524Z,208.50
2023-05-05T06:37:04.529Z,208.10
2023-05-05T06:38:07.705Z,217.32
2023-05-05T06:39:04.669Z,217.51
2023-05-05T06:40:04.449Z,217.91
2023-05-05T06:41:04.442Z,218.60
2023-05-05T06:42:07.611Z,219.49
2023-05-05T06:43:04.397Z,217.95
2023-05-05T06:44:04.563Z,218.77
2023-05-05T06:45:04.341Z,222.09
2023-05-05T06:46:04.751Z,225.58
2023-05-05T06:47:04.439Z,229.71
2023-05-05T06:48:04.341Z,234.95
2023-05-05T06:49:04.573Z,239.51
2023-05-05T06:50:04.482Z,236.93
2023-05-05T06:51:11.587Z,236.96
2023-05-05T06:52:04.170Z,237.66
2023-05-05T06:53:04.154Z,239.57
2023-05-05T12:17:53.177Z,25.00
2023-05-05T12:18:54.002Z,25.00
2023-05-05T12:19:54.013Z,25.00
2023-05-05T12:20:53.984Z,25.00
2023-05-05T12:21:53.982Z,25.00
2023-05-05T12:22:53.976Z,20.29
2023-05-05T12:23:53.957Z,25.23
2023-05-05T12:24:54.924Z,24.25
2023-05-05T12:25:53.922Z,25.00
2023-05-05T12:26:53.892Z,25.00
2023-05-05T12:27:53.871Z,46.60
2023-05-05T12:28:53.862Z,66.40
2023-05-05T12:29:53.842Z,63.60
2023-05-05T12:30:55.023Z,59.26
2023-05-05T12:31:53.855Z,58.45
2023-05-05T12:32:53.824Z,65.72
2023-05-05T12:33:53.870Z,25.00
2023-05-05T12:34:53.751Z,20.20
2023-05-05T12:35:53.729Z,28.36
2023-05-05T12:36:53.764Z,41.30
2023-05-05T12:37:53.788Z,24.04
2023-05-05T12:38:53.781Z,25.22
2023-05-05T12:39:53.817Z,37.04
2023-05-05T12:40:53.806Z,35.70
2023-05-05T12:41:53.836Z,39.87
2023-05-05T12:42:53.890Z,37.45
2023-05-05T12:43:53.912Z,46.04
2023-05-05T12:44:53.929Z,54.45
2023-05-05T12:45:53.982Z,58.73
2023-05-05T12:46:53.980Z,30.55
2023-05-05T12:47:54.032Z,25.00
2023-05-05T12:48:54.063Z,31.87
2023-05-05T12:49:54.393Z,49.37
2023-05-05T12:50:54.099Z,53.59
2023-05-05T12:51:54.147Z,33.01
2023-05-05T12:52:54.180Z,24.43
2023-05-05T12:53:54.216Z,36.85
2023-05-05T12:54:55.050Z,52.33
2023-05-05T12:55:54.304Z,59.55
2023-05-05T12:56:54.321Z,64.73
2023-05-05T12:57:54.356Z,75.64
2023-05-05T12:58:54.403Z,96.72
2023-05-05T12:59:54.458Z,83.62
2023-05-05T13:00:55.187Z,46.91
2023-05-05T13:01:54.606Z,53.27
2023-05-05T13:02:54.764Z,65.69
2023-05-05T13:03:54.595Z,57.85
2023-05-05T13:04:54.673Z,82.45
2023-05-05T13:05:54.820Z,70.20
2023-05-05T13:06:54.679Z,77.24
2023-05-05T13:07:54.729Z,70.52
2023-05-05T13:08:54.786Z,62.52
2023-05-05T13:09:54.826Z,66.58
2023-05-05T13:10:54.852Z,46.92
2023-05-05T13:11:54.908Z,53.27
2023-05-05T13:12:55.311Z,72.88
2023-05-05T13:13:54.954Z,78.43
2023-05-05T13:14:55.000Z,72.80
2023-05-05T13:15:55.048Z,64.47
2023-05-05T13:16:55.073Z,55.42
2023-05-05T13:17:55.186Z,37.40
2023-05-05T13:18:55.159Z,38.71
2023-05-05T13:19:55.192Z,52.43
2023-05-05T13:20:55.233Z,56.12
2023-05-05T13:21:55.375Z,78.26
2023-05-05T13:22:55.316Z,126.05
2023-05-05T13:24:01.551Z,144.16
2023-05-05T13:24:57.199Z,144.76
2023-05-05T13:25:55.714Z,145.25
2023-05-05T13:26:55.287Z,157.86
2023-05-05T13:27:55.264Z,162.99
2023-05-05T13:28:55.250Z,196.97
2023-05-05T13:29:55.724Z,241.73
2023-05-05T13:30:56.285Z,243.69
2023-05-05T13:31:55.266Z,250.10
2023-05-05T13:32:55.243Z,252.32
2023-05-05T13:33:55.719Z,248.52
2023-05-05T13:34:55.244Z,249.50
2023-05-05T13:35:55.221Z,249.48
2023-05-05T13:36:55.230Z,249.63
2023-05-05T13:37:55.329Z,248.99
2023-05-05T13:38:55.217Z,225.69
2023-05-05T13:39:55.243Z,177.94
2023-05-05T13:40:55.268Z,162.80
2023-05-05T13:41:55.293Z,158.67
2023-05-05T13:42:55.316Z,154.36
2023-05-05T13:43:55.348Z,149.43
2023-05-05T13:44:55.384Z,137.56
2023-05-05T13:46:02.800Z,124.79
2023-05-05T13:46:55.390Z,122.92
2023-05-05T13:47:55.406Z,125.86
2023-05-05T13:48:56.893Z,126.61
2023-05-05T13:49:55.573Z,108.88
2023-05-05T13:50:55.636Z,94.91
2023-05-05T13:51:55.614Z,86.85
2023-05-05T13:52:55.592Z,89.10
2023-05-05T13:53:55.717Z,88.85
2023-05-05T13:54:55.629Z,106.40
2023-05-05T13:55:55.696Z,112.87
2023-05-05T13:56:55.601Z,97.86
2023-05-05T13:57:55.601Z,95.53
2023-05-05T13:58:55.635Z,92.51
2023-05-05T13:59:55.658Z,85.66
2023-05-05T14:00:56.331Z,84.64
2023-05-05T14:01:55.725Z,95.22
2023-05-05T14:02:55.771Z,80.55
2023-05-05T14:03:57.438Z,84.51
2023-05-05T14:04:55.784Z,73.55
2023-05-05T14:05:56.230Z,85.45
2023-05-05T14:06:55.733Z,91.57
2023-05-05T14:07:55.720Z,77.94
2023-05-05T14:08:55.710Z,77.00
2023-05-05T14:09:55.781Z,90.04
2023-05-05T14:10:55.658Z,75.19
2023-05-05T14:11:55.637Z,55.79
2023-05-05T14:12:55.694Z,50.41
2023-05-05T14:13:55.738Z,52.94
2023-05-05T14:14:55.594Z,53.43
2023-05-05T14:15:55.583Z,59.73
2023-05-05T14:16:55.622Z,56.10
2023-05-05T14:17:55.556Z,59.96
2023-05-05T14:18:55.532Z,100.24
2023-05-05T14:19:55.511Z,139.47
2023-05-05T14:20:55.506Z,172.66
2023-05-05T14:21:55.492Z,189.11
2023-05-05T14:22:55.513Z,201.22
2023-05-05T14:23:55.473Z,217.24
2023-05-05T14:24:55.469Z,228.60
2023-05-05T14:25:55.570Z,236.20
2023-05-05T14:26:55.494Z,235.52
2023-05-05T14:27:55.508Z,215.03
2023-05-05T14:28:55.808Z,205.84
2023-05-05T14:29:55.576Z,205.06
2023-05-05T14:30:55.598Z,192.90
2023-05-05T14:31:55.756Z,171.15
2023-05-05T14:32:55.679Z,164.31
2023-05-05T14:33:55.751Z,144.59
2023-05-05T14:34:55.710Z,134.43
2023-05-05T14:35:55.706Z,108.52
2023-05-05T14:36:55.708Z,89.00
2023-05-05T14:37:55.717Z,90.07
2023-05-05T14:38:55.882Z,81.80
2023-05-05T14:39:55.715Z,62.50
2023-05-05T14:40:55.690Z,40.30
2023-05-05T14:41:55.818Z,37.40
2023-05-05T14:42:55.718Z,38.84
2023-05-05T14:43:55.759Z,40.26
2023-05-05T14:44:55.735Z,41.29
2023-05-05T14:45:55.799Z,49.09
2023-05-05T14:46:56.264Z,44.09
2023-05-05T14:47:55.889Z,38.63
2023-05-05T14:48:55.902Z,26.28
2023-05-05T14:49:55.940Z,34.69
2023-05-05T14:50:55.985Z,32.47
2023-05-05T14:51:56.804Z,45.82
2023-05-05T14:52:56.066Z,50.78
2023-05-05T14:53:56.110Z,36.56
2023-05-05T14:54:56.145Z,25.40
2023-05-05T14:55:56.172Z,25.03
2023-05-05T14:56:56.242Z,24.41
2023-05-05T14:57:56.399Z,26.89
2023-05-05T14:58:56.265Z,29.59
2023-05-05T14:59:56.293Z,26.57
2023-05-05T15:00:56.318Z,26.58
2023-05-05T15:01:56.436Z,31.83
2023-05-05T15:02:56.468Z,32.10
2023-05-05T15:03:56.485Z,34.40
2023-05-05T15:04:56.763Z,40.10
2023-05-05T15:05:56.500Z,41.03
2023-05-05T15:06:56.498Z,43.61
2023-05-05T15:07:56.522Z,49.81
2023-05-05T15:08:56.558Z,51.89
2023-05-05T15:09:56.589Z,53.91
2023-05-05T15:10:56.607Z,38.42
2023-05-05T15:11:56.632Z,25.02
2023-05-05T15:12:56.683Z,41.02
2023-05-05T15:13:56.859Z,50.17
2023-05-05T15:14:56.676Z,51.11
2023-05-05T15:15:56.732Z,59.33
2023-05-05T15:16:56.712Z,68.51
2023-05-05T15:17:56.768Z,70.58
2023-05-05T15:18:56.749Z,72.69
2023-05-05T15:19:56.772Z,72.86
2023-05-05T15:20:56.855Z,72.48
2023-05-05T15:21:56.792Z,70.43
2023-05-05T15:22:56.811Z,71.94
2023-05-05T15:23:56.830Z,78.19
2023-05-05T15:24:56.850Z,73.42
2023-05-05T15:25:56.875Z,72.75
2023-05-05T15:26:56.916Z,74.19
2023-05-05T15:27:56.912Z,72.53
2023-05-05T15:28:56.923Z,73.08
2023-05-05T15:29:57.029Z,70.56
2023-05-05T15:30:56.945Z,67.37
2023-05-05T15:31:57.029Z,70.65
2023-05-05T15:32:57.052Z,65.92
2023-05-05T15:33:56.998Z,56.80
2023-05-05T15:34:57.000Z,62.53
2023-05-05T15:35:57.017Z,66.61
2023-05-05T15:36:57.036Z,60.14
2023-05-05T15:37:57.055Z,69.35
2023-05-05T15:38:57.065Z,62.60
2023-05-05T15:39:57.090Z,58.08
2023-05-05T15:40:57.107Z,77.05
2023-05-05T15:41:57.130Z,94.91
2023-05-05T15:42:57.151Z,98.30
2023-05-05T15:43:57.171Z,110.16
2023-05-05T15:44:57.238Z,106.23
2023-05-05T15:45:57.470Z,107.51
2023-05-05T15:46:57.297Z,105.65
2023-05-05T15:47:57.446Z,109.02
2023-05-05T15:48:57.347Z,119.44
2023-05-05T15:49:57.402Z,149.60
2023-05-05T15:50:57.382Z,171.46
2023-05-05T15:51:57.393Z,199.49
2023-05-05T15:52:57.434Z,214.40
2023-05-05T15:53:57.449Z,228.33
2023-05-05T15:54:57.492Z,241.71
2023-05-05T15:55:57.532Z,250.00
2023-05-05T15:56:57.592Z,250.00
2023-05-05T15:57:57.666Z,250.00
2023-05-05T15:58:57.760Z,247.99
2023-05-05T15:59:57.780Z,240.63
2023-05-05T16:00:57.938Z,240.44
2023-05-05T16:01:58.035Z,246.03
2023-05-05T16:02:58.074Z,249.57
2023-05-05T16:03:57.981Z,248.35
2023-05-05T16:04:57.990Z,246.44
2023-05-05T16:05:58.015Z,245.99
2023-05-05T16:06:58.016Z,245.17
2023-05-05T16:07:58.033Z,243.53
2023-05-05T16:08:58.056Z,238.35
2023-05-05T16:09:58.048Z,239.74
2023-05-05T16:10:58.059Z,233.47
2023-05-05T16:11:58.059Z,225.27
2023-05-05T16:12:58.129Z,219.23
2023-05-05T16:13:58.166Z,215.47
2023-05-05T16:14:58.216Z,212.72
2023-05-05T16:15:58.249Z,208.57
2023-05-05T16:16:58.326Z,208.74
2023-05-05T16:17:58.378Z,204.54
2023-05-05T16:18:58.281Z,203.59
2023-05-05T16:19:58.308Z,204.19
2023-05-05T16:20:58.323Z,172.18
2023-05-05T16:21:58.326Z,144.05
2023-05-05T16:22:58.333Z,127.56
2023-05-05T16:23:58.313Z,109.85
2023-05-05T16:24:58.330Z,86.00
2023-05-05T16:25:58.278Z,78.34
2023-05-05T16:26:58.255Z,62.39
2023-05-05T16:27:58.242Z,50.34
2023-05-05T16:28:58.235Z,54.63
2023-05-05T16:29:59.687Z,60.18
2023-05-05T16:30:58.418Z,57.61
2023-05-05T16:31:58.538Z,54.55
2023-05-05T16:32:58.493Z,50.19
2023-05-05T16:33:58.662Z,50.93
2023-05-05T16:34:58.566Z,53.54
2023-05-05T16:35:58.576Z,51.90
2023-05-05T16:36:58.626Z,55.14
2023-05-05T16:37:58.566Z,51.88
2023-05-05T16:38:58.566Z,52.88
2023-05-05T16:39:58.854Z,65.47
2023-05-05T16:40:58.577Z,71.72
2023-05-05T16:41:58.597Z,88.71
2023-05-05T16:42:58.592Z,97.25
2023-05-05T16:43:58.605Z,99.57
2023-05-05T16:44:58.651Z,104.63
2023-05-05T16:45:58.708Z,120.77
2023-05-05T16:46:58.681Z,126.39
2023-05-05T16:47:58.726Z,131.44
2023-05-05T16:48:58.764Z,143.07
2023-05-05T16:49:58.799Z,153.60
2023-05-05T16:50:58.817Z,168.04
2023-05-05T16:51:58.865Z,174.87
2023-05-05T16:52:58.909Z,185.73
2023-05-05T16:53:58.957Z,202.42
2023-05-05T16:54:58.972Z,212.44
2023-05-05T16:55:59.060Z,221.45
2023-05-05T16:56:59.081Z,225.36
2023-05-05T16:57:59.119Z,235.31
2023-05-05T16:58:59.168Z,240.01
2023-05-05T16:59:59.232Z,243.57
2023-05-05T17:00:59.302Z,248.54
2023-05-05T17:01:59.509Z,248.33
2023-05-05T17:02:59.431Z,249.70
2023-05-05T17:03:59.430Z,248.27
2023-05-05T17:04:59.506Z,246.67
2023-05-05T17:05:59.639Z,244.99
2023-05-05T17:06:59.591Z,248.94
2023-05-05T17:07:59.654Z,249.54
2023-05-05T17:08:59.689Z,249.93
2023-05-05T17:09:59.727Z,250.09
2023-05-05T17:10:59.822Z,248.85
2023-05-05T17:11:59.883Z,250.00
2023-05-05T17:12:59.944Z,250.00
2023-05-05T17:13:59.970Z,248.63
2023-05-05T17:15:00.062Z,249.42
2023-05-05T17:16:00.205Z,250.00
2023-05-05T17:17:00.132Z,250.00
2023-05-05T17:18:00.253Z,250.00
2023-05-05T17:19:00.328Z,249.37
2023-05-05T17:20:00.310Z,249.52
2023-05-05T17:21:00.329Z,248.88
2023-05-05T17:22:00.478Z,250.00
2023-05-05T17:23:00.354Z,243.97
2023-05-05T17:24:00.377Z,248.31
2023-05-05T17:25:00.355Z,250.00
2023-05-05T17:26:00.381Z,250.00
2023-05-05T17:27:00.404Z,246.65
2023-05-05T17:28:00.406Z,240.23
2023-05-05T17:29:00.436Z,234.43
2023-05-05T17:30:00.396Z,233.98
2023-05-05T17:31:00.406Z,232.51
2023-05-05T17:32:00.432Z,230.88
2023-05-05T17:33:00.439Z,230.61
2023-05-05T17:34:00.424Z,230.11
2023-05-05T17:35:00.424Z,229.59
2023-05-05T17:36:00.499Z,227.99
2023-05-05T17:37:00.450Z,214.69
2023-05-05T17:38:00.496Z,211.83
2023-05-05T17:39:00.522Z,213.70
2023-05-05T17:40:00.556Z,222.67
2023-05-05T17:41:01.222Z,228.46
2023-05-05T17:42:01.377Z,228.91
2023-05-05T17:43:01.367Z,231.67
2023-05-05T17:44:01.367Z,231.45
2023-05-05T17:45:00.741Z,232.31
2023-05-05T17:46:01.288Z,231.39
2023-05-05T17:47:00.936Z,228.57
2023-05-05T17:48:01.103Z,228.89
2023-05-05T17:49:00.812Z,228.39
2023-05-05T17:50:00.791Z,228.66
2023-05-05T17:51:00.699Z,233.50
2023-05-05T17:52:00.702Z,232.82
2023-05-05T17:53:00.709Z,234.80
2023-05-05T17:54:00.792Z,234.54
2023-05-05T17:55:00.730Z,236.05
2023-05-05T17:56:00.730Z,235.55
2023-05-05T17:57:00.757Z,238.78
2023-05-05T17:58:00.779Z,239.56
2023-05-05T17:59:00.770Z,236.48
2023-05-05T18:00:00.773Z,233.40
2023-05-05T18:01:00.821Z,235.94
2023-05-05T18:02:00.834Z,235.54
2023-05-05T18:03:00.876Z,237.87
2023-05-05T18:04:00.818Z,238.02
2023-05-05T18:05:00.826Z,241.45
2023-05-05T18:06:00.816Z,243.02
2023-05-05T18:07:00.849Z,245.85
2023-05-05T18:08:00.882Z,246.55
2023-05-05T18:09:00.876Z,246.55
2023-05-05T18:10:00.981Z,248.60
2023-05-05T18:11:00.874Z,250.46
2023-05-05T18:12:00.883Z,250.00
2023-05-05T18:13:00.922Z,247.79
2023-05-05T18:14:00.910Z,249.09